createdAt,value
2022-08-08T00:00:52.782Z,69.50
2022-08-08T00:03:37.941Z,69.60
2022-08-08T00:06:49.894Z,69.60
2022-08-08T00:10:16.021Z,69.60
2022-08-08T00:14:17.224Z,69.60
2022-08-08T00:17:23.892Z,69.80
2022-08-08T00:20:33.827Z,69.80
2022-08-08T00:23:47.759Z,69.90
2022-08-08T00:26:58.052Z,70.10
2022-08-08T00:30:07.015Z,70.10
2022-08-08T00:33:17.433Z,70.30
2022-08-08T00:36:35.140Z,70.30
2022-08-08T00:41:09.466Z,70.40
2022-08-08T00:43:39.891Z,70.30
2022-08-08T00:46:57.694Z,70.40
2022-08-08T00:50:20.958Z,70.50
2022-08-08T00:53:23.262Z,70.40
2022-08-08T00:56:50.519Z,70.50
2022-08-08T01:00:08.800Z,70.60
2022-08-08T01:04:02.027Z,70.60
2022-08-08T01:07:05.987Z,70.70
2022-08-08T01:10:43.678Z,70.50
2022-08-08T01:14:16.334Z,70.70
2022-08-08T01:17:53.765Z,70.70
2022-08-08T01:21:17.499Z,71.00
2022-08-08T01:25:18.170Z,70.90
2022-08-08T01:29:06.678Z,70.90
2022-08-08T01:32:58.473Z,70.90
2022-08-08T01:36:20.595Z,70.90
2022-08-08T01:39:35.083Z,71.10
2022-08-08T01:43:20.909Z,71.90
2022-08-08T01:46:43.669Z,71.10
2022-08-08T01:50:17.048Z,71.10
2022-08-08T01:55:16.810Z,71.20
2022-08-08T01:58:10.815Z,71.50
2022-08-08T02:01:23.344Z,71.20
2022-08-08T02:04:30.773Z,71.20
2022-08-08T02:08:05.493Z,71.50
2022-08-08T02:11:23.689Z,71.30
2022-08-08T02:14:28.047Z,71.40
2022-08-08T02:18:00.007Z,71.60
2022-08-08T02:21:53.596Z,71.50
2022-08-08T02:25:19.226Z,71.40
2022-08-08T02:28:48.369Z,71.50
2022-08-08T02:32:26.185Z,71.70
2022-08-08T02:36:04.159Z,71.60
2022-08-08T02:39:59.653Z,71.70
2022-08-08T02:44:36.997Z,71.60
2022-08-08T02:47:10.016Z,71.80
2022-08-08T02:50:59.930Z,71.70
2022-08-08T02:54:34.447Z,71.80
2022-08-08T02:58:10.857Z,71.80
2022-08-08T03:01:40.041Z,71.70
2022-08-08T03:05:18.519Z,71.90
2022-08-08T03:08:27.659Z,71.80
2022-08-08T03:12:01.864Z,71.90
2022-08-08T03:16:01.149Z,71.90
2022-08-08T03:19:50.827Z,71.80
2022-08-08T03:22:56.776Z,71.90
2022-08-08T03:26:03.124Z,71.90
2022-08-08T03:29:20.506Z,71.90
2022-08-08T03:32:53.337Z,71.80
2022-08-08T03:36:03.763Z,71.80
2022-08-08T03:39:15.367Z,71.80
2022-08-08T03:42:29.974Z,71.70
2022-08-08T03:46:03.244Z,71.80
2022-08-08T03:49:54.891Z,71.80
2022-08-08T03:52:32.091Z,71.60
2022-08-08T03:55:56.267Z,71.60
2022-08-08T03:59:00.945Z,71.60
2022-08-08T04:02:23.066Z,71.60
2022-08-08T04:05:30.281Z,71.70
2022-08-08T04:08:38.909Z,71.60
2022-08-08T04:12:00.569Z,72.40
2022-08-08T04:15:17.953Z,71.70
2022-08-08T04:18:25.197Z,71.70
2022-08-08T04:21:28.070Z,71.70
2022-08-08T04:24:40.833Z,71.60
2022-08-08T04:28:03.530Z,71.70
2022-08-08T04:31:09.251Z,71.70
2022-08-08T04:34:11.828Z,71.70
2022-08-08T04:37:14.457Z,71.70
2022-08-08T04:40:17.881Z,71.70
2022-08-08T04:43:31.913Z,71.60
2022-08-08T04:46:52.476Z,71.70
2022-08-08T04:50:01.392Z,71.70
2022-08-08T04:53:14.104Z,71.70
2022-08-08T04:56:35.027Z,71.70
2022-08-08T04:59:42.168Z,71.70
2022-08-08T05:02:45.713Z,71.70
2022-08-08T05:05:48.252Z,71.60
2022-08-08T05:09:02.879Z,71.70
2022-08-08T05:12:20.468Z,71.70
2022-08-08T05:15:25.026Z,71.50
2022-08-08T05:18:35.015Z,71.50
2022-08-08T05:21:58.029Z,71.70
2022-08-08T05:25:03.223Z,71.70
2022-08-08T05:28:06.792Z,71.90
2022-08-08T05:32:02.435Z,71.70
2022-08-08T05:34:41.049Z,71.70
2022-08-08T05:37:54.652Z,72.40
2022-08-08T05:41:29.284Z,72.90
2022-08-08T05:44:44.465Z,73.40
2022-08-08T05:48:00.543Z,73.20
2022-08-08T05:51:15.143Z,73.60
2022-08-08T05:54:26.820Z,74.00
2022-08-08T05:58:04.218Z,74.20
2022-08-08T06:01:11.771Z,74.50
2022-08-08T06:04:35.117Z,75.00
2022-08-08T06:07:46.036Z,75.20
2022-08-08T06:10:49.931Z,75.30
2022-08-08T06:13:54.353Z,75.30
2022-08-08T06:17:02.437Z,75.20
2022-08-08T06:20:25.665Z,75.30
2022-08-08T06:23:52.697Z,75.50
2022-08-08T06:27:09.549Z,76.00
2022-08-08T06:30:26.100Z,75.70
2022-08-08T06:34:27.148Z,76.20
2022-08-08T06:37:35.486Z,75.70
2022-08-08T06:40:48.761Z,76.30
2022-08-08T06:43:59.554Z,76.50
2022-08-08T06:51:46.945Z,76.40
2022-08-08T06:54:58.804Z,76.80
2022-08-08T06:58:04.174Z,76.80
2022-08-08T07:05:30.222Z,76.30
2022-08-08T07:08:48.174Z,76.90
2022-08-08T07:11:58.855Z,76.60
2022-08-08T07:15:23.412Z,76.60
2022-08-08T07:18:57.455Z,76.50
2022-08-08T07:22:11.942Z,76.20
2022-08-08T07:25:29.361Z,76.10
2022-08-08T07:28:37.821Z,76.00
2022-08-08T07:31:44.228Z,76.10
2022-08-08T07:35:00.492Z,75.60
2022-08-08T07:38:18.146Z,75.50
2022-08-08T07:41:58.812Z,74.70
2022-08-08T07:45:00.493Z,74.20
2022-08-08T07:48:05.619Z,74.00
2022-08-08T07:51:23.275Z,74.00
2022-08-08T07:54:36.925Z,74.00
2022-08-08T07:58:30.439Z,74.00
2022-08-08T08:02:32.857Z,73.80
2022-08-08T08:05:03.766Z,73.60
2022-08-08T08:08:20.606Z,73.70
2022-08-08T08:11:33.701Z,73.90
2022-08-08T08:14:42.875Z,73.80
2022-08-08T08:17:55.511Z,73.80
2022-08-08T08:21:00.457Z,73.60
2022-08-08T08:24:04.372Z,73.70
2022-08-08T08:27:09.525Z,73.50
2022-08-08T08:30:15.603Z,73.50
2022-08-08T08:33:21.316Z,73.20
2022-08-08T08:36:26.579Z,73.10
2022-08-08T08:39:59.382Z,73.00
2022-08-08T08:42:54.831Z,73.10
2022-08-08T08:46:03.555Z,73.80
2022-08-08T08:49:09.945Z,73.20
2022-08-08T08:52:17.928Z,73.20
2022-08-08T08:55:25.539Z,73.10
2022-08-08T08:58:37.972Z,73.10
2022-08-08T09:01:45.640Z,73.00
2022-08-08T09:05:04.990Z,72.90
2022-08-08T09:08:12.724Z,72.70
2022-08-08T09:11:23.073Z,72.40
2022-08-08T09:14:27.148Z,72.30
2022-08-08T17:44:29.228Z,63.90
2022-08-08T17:47:40.237Z,63.90
2022-08-08T17:50:44.016Z,64.00
2022-08-08T17:53:46.549Z,64.00
2022-08-08T17:57:01.486Z,64.00
2022-08-08T18:00:13.378Z,64.20
2022-08-08T18:03:22.917Z,64.30
2022-08-08T18:06:31.259Z,64.30
2022-08-08T18:09:38.676Z,64.40
2022-08-08T18:12:44.424Z,64.50
2022-08-08T18:15:48.532Z,64.60
2022-08-08T18:19:04.326Z,64.70
2022-08-08T18:22:07.167Z,64.80
2022-08-08T18:25:37.372Z,64.90
2022-08-08T18:28:54.236Z,65.00
2022-08-08T18:31:59.107Z,65.10
2022-08-08T18:35:01.352Z,65.10
2022-08-08T18:38:16.733Z,65.20
2022-08-08T18:41:45.612Z,66.20
2022-08-08T18:44:52.943Z,65.40
2022-08-08T18:47:58.541Z,65.50
2022-08-08T18:51:01.447Z,65.50
2022-08-08T18:54:13.724Z,65.60
2022-08-08T18:57:26.151Z,65.60
2022-08-08T19:00:29.058Z,65.70
2022-08-08T19:04:01.537Z,65.90
2022-08-08T19:06:55.406Z,65.80
2022-08-08T19:10:14.509Z,65.80
2022-08-08T19:13:20.958Z,65.80
2022-08-08T19:16:28.553Z,65.80
2022-08-08T19:19:36.435Z,66.00
2022-08-08T19:22:38.630Z,66.10
2022-08-08T19:26:20.146Z,66.00
2022-08-08T19:29:07.899Z,66.80
2022-08-08T19:32:12.965Z,66.10
2022-08-08T19:35:25.375Z,66.10
2022-08-08T19:38:46.251Z,66.20
2022-08-08T19:41:53.039Z,66.10
2022-08-08T19:45:05.309Z,66.10
2022-08-08T19:48:28.677Z,66.30
2022-08-08T19:51:34.893Z,66.10
2022-08-08T19:54:50.269Z,66.10
2022-08-08T19:57:55.333Z,66.10
2022-08-08T20:00:59.805Z,66.10
2022-08-08T20:04:03.796Z,66.10
2022-08-08T20:08:27.945Z,66.10
2022-08-08T20:10:34.005Z,66.10
2022-08-08T20:14:32.461Z,66.10
2022-08-08T20:17:00.399Z,66.20
2022-08-08T20:20:04.172Z,66.30
2022-08-08T20:23:12.367Z,66.20
2022-08-08T20:26:18.286Z,66.20
2022-08-08T20:29:45.607Z,66.30
2022-08-08T20:32:52.650Z,66.20
2022-08-08T20:35:59.036Z,66.30
2022-08-08T20:39:09.902Z,66.20
2022-08-08T20:42:12.171Z,66.30
2022-08-08T20:45:14.921Z,66.30
2022-08-08T20:48:38.169Z,66.40
2022-08-08T20:51:43.229Z,66.40
2022-08-08T20:54:45.538Z,66.30
2022-08-08T20:57:51.327Z,66.40
2022-08-08T21:00:54.807Z,66.30
2022-08-08T21:04:01.662Z,66.40
2022-08-08T21:07:08.145Z,66.40
2022-08-08T21:10:12.752Z,66.30
2022-08-08T21:13:16.589Z,66.20
2022-08-08T21:16:20.681Z,66.40
2022-08-08T21:19:44.440Z,66.40
2022-08-08T21:22:50.102Z,66.40
2022-08-08T21:25:55.065Z,66.40
2022-08-08T21:29:02.916Z,66.40
2022-08-08T21:32:14.272Z,66.40
2022-08-08T21:36:16.324Z,66.60
2022-08-08T21:38:53.958Z,66.50
2022-08-08T21:41:59.145Z,66.50
2022-08-08T21:45:44.159Z,66.70
2022-08-08T21:48:35.380Z,66.60
2022-08-08T21:54:18.418Z,66.60
2022-08-08T21:56:06.064Z,66.70
2022-08-08T21:58:37.359Z,66.80
2022-08-08T22:01:41.034Z,66.70
2022-08-08T22:04:44.248Z,66.80
2022-08-08T22:07:50.045Z,66.90
2022-08-08T22:10:54.197Z,66.80
2022-08-08T22:13:58.574Z,66.80
2022-08-08T22:17:01.506Z,66.80
2022-08-08T22:20:12.470Z,66.80
2022-08-08T22:23:32.602Z,66.80
2022-08-08T22:27:01.659Z,67.20
2022-08-08T22:30:02.150Z,66.80
2022-08-08T22:33:09.185Z,66.80
2022-08-08T22:36:32.177Z,66.70
2022-08-08T22:39:45.941Z,66.70
2022-08-08T22:42:53.830Z,66.70
2022-08-08T22:45:56.429Z,66.60
2022-08-08T22:48:59.282Z,66.60
2022-08-08T22:52:03.033Z,66.60
2022-08-08T22:55:06.162Z,66.60
2022-08-08T22:58:08.644Z,66.50
2022-08-08T23:02:00.789Z,66.50
2022-08-08T23:04:35.850Z,66.60
2022-08-08T23:07:57.471Z,66.50
2022-08-08T23:11:05.989Z,66.50
2022-08-08T23:14:16.520Z,66.50
2022-08-08T23:17:18.863Z,66.40
2022-08-08T23:20:21.859Z,66.40
2022-08-08T23:23:32.683Z,66.40
2022-08-08T23:26:56.050Z,66.30
2022-08-08T23:29:59.167Z,66.20
2022-08-08T23:33:01.443Z,66.20
2022-08-08T23:36:08.186Z,66.10
2022-08-08T23:39:11.454Z,66.10
2022-08-08T23:42:13.760Z,66.00
2022-08-08T23:45:18.645Z,66.00
2022-08-08T23:49:06.940Z,66.00
2022-08-08T23:52:04.907Z,65.90
2022-08-08T23:55:22.279Z,65.90
2022-08-08T23:58:37.751Z,65.80
